sensor_id;sensor_type;location;lat;lon;timestamp;pressure;altitude;pressure_sealevel;temperature;humidity
70730;BME280;58315;53.336;55.932;2023-02-18T00:00:27;99886.81;;;-12.28;47.55
70730;BME280;58315;53.336;55.932;2023-02-18T00:02:53;99880.00;;;-12.30;47.46
70730;BME280;58315;53.336;55.932;2023-02-18T00:05:21;99881.66;;;-12.32;46.83
70730;BME280;58315;53.336;55.932;2023-02-18T00:07:47;99876.53;;;-12.37;47.64
70730;BME280;58315;53.336;55.932;2023-02-18T00:10:14;99870.63;;;-12.34;47.61
70730;BME280;58315;53.336;55.932;2023-02-18T00:12:41;99872.31;;;-12.35;47.87
70730;BME280;58315;53.336;55.932;2023-02-18T00:15:07;99869.72;;;-12.40;48.18
70730;BME280;58315;53.336;55.932;2023-02-18T00:17:34;99871.44;;;-12.37;48.33
70730;BME280;58315;53.336;55.932;2023-02-18T00:20:00;99873.19;;;-12.30;48.10
70730;BME280;58315;53.336;55.932;2023-02-18T00:22:26;99878.28;;;-12.30;47.91
70730;BME280;58315;53.336;55.932;2023-02-18T00:24:52;99875.75;;;-12.30;47.32
70730;BME280;58315;53.336;55.932;2023-02-18T00:27:18;99875.75;;;-12.25;47.52
70730;BME280;58315;53.336;55.932;2023-02-18T00:29:44;99867.25;;;-12.30;47.81
70730;BME280;58315;53.336;55.932;2023-02-18T00:32:10;99874.91;;;-12.27;47.85
70730;BME280;58315;53.336;55.932;2023-02-18T00:34:36;99860.50;;;-12.27;48.24
70730;BME280;58315;53.336;55.932;2023-02-18T00:37:03;99860.41;;;-12.36;47.75
70730;BME280;58315;53.336;55.932;2023-02-18T00:39:29;99868.06;;;-12.33;47.61
70730;BME280;58315;53.336;55.932;2023-02-18T00:41:55;99868.94;;;-12.32;47.29
70730;BME280;58315;53.336;55.932;2023-02-18T00:44:21;99866.38;;;-12.34;47.83
70730;BME280;58315;53.336;55.932;2023-02-18T00:46:48;99855.31;;;-12.36;47.70
70730;BME280;58315;53.336;55.932;2023-02-18T00:49:15;99851.09;;;-12.38;47.63
70730;BME280;58315;53.336;55.932;2023-02-18T00:51:41;99858.75;;;-12.34;47.34
70730;BME280;58315;53.336;55.932;2023-02-18T00:54:07;99853.66;;;-12.34;47.65
70730;BME280;58315;53.336;55.932;2023-02-18T00:56:34;99848.47;;;-12.43;47.23
70730;BME280;58315;53.336;55.932;2023-02-18T00:59:00;99851.00;;;-12.49;48.03
70730;BME280;58315;53.336;55.932;2023-02-18T01:01:27;99847.56;;;-12.57;47.98
70730;BME280;58315;53.336;55.932;2023-02-18T01:03:53;99848.41;;;-12.55;48.01
70730;BME280;58315;53.336;55.932;2023-02-18T01:06:19;99854.31;;;-12.59;48.63
70730;BME280;58315;53.336;55.932;2023-02-18T01:08:47;99849.28;;;-12.52;48.47
70730;BME280;58315;53.336;55.932;2023-02-18T01:11:14;99854.41;;;-12.47;48.45
70730;BME280;58315;53.336;55.932;2023-02-18T01:13:58;99849.34;;;-12.44;48.08
70730;BME280;58315;53.336;55.932;2023-02-18T01:16:24;99849.38;;;-12.38;48.48
70730;BME280;58315;53.336;55.932;2023-02-18T01:18:50;99848.53;;;-12.37;48.00
70730;BME280;58315;53.336;55.932;2023-02-18T01:21:16;99845.94;;;-12.43;48.12
70730;BME280;58315;53.336;55.932;2023-02-18T01:23:43;99842.38;;;-12.67;48.42
70730;BME280;58315;53.336;55.932;2023-02-18T01:26:10;99848.34;;;-12.68;48.73
70730;BME280;58315;53.336;55.932;2023-02-18T01:28:38;99840.72;;;-12.63;48.72
70730;BME280;58315;53.336;55.932;2023-02-18T01:31:07;99844.94;;;-12.68;48.56
70730;BME280;58315;53.336;55.932;2023-02-18T01:33:34;99853.38;;;-12.71;48.53
70730;BME280;58315;53.336;55.932;2023-02-18T01:36:00;99853.38;;;-12.71;48.56
70730;BME280;58315;53.336;55.932;2023-02-18T01:38:26;99849.09;;;-12.78;48.86
70730;BME280;58315;53.336;55.932;2023-02-18T01:40:52;99851.63;;;-12.78;48.71
70730;BME280;58315;53.336;55.932;2023-02-18T01:43:20;99844.13;;;-12.64;48.28
70730;BME280;58315;53.336;55.932;2023-02-18T01:45:55;99848.34;;;-12.65;48.16
70730;BME280;58315;53.336;55.932;2023-02-18T01:48:27;99842.41;;;-12.68;48.22
70730;BME280;58315;53.336;55.932;2023-02-18T01:51:17;99848.41;;;-12.55;48.15
70730;BME280;58315;53.336;55.932;2023-02-18T01:54:19;99840.88;;;-12.42;48.62
70730;BME280;58315;53.336;55.932;2023-02-18T01:59:28;99843.28;;;-12.58;48.29
70730;BME280;58315;53.336;55.932;2023-02-18T02:01:55;99846.59;;;-12.69;48.52
70730;BME280;58315;53.336;55.932;2023-02-18T02:04:43;99845.56;;;-12.92;47.66
70730;BME280;58315;53.336;55.932;2023-02-18T02:07:10;99834.59;;;-12.90;47.87
70730;BME280;58315;53.336;55.932;2023-02-18T02:09:38;99843.00;;;-12.97;47.77
70730;BME280;58315;53.336;55.932;2023-02-18T02:36:47;99836.28;;;-12.90;48.44
70730;BME280;58315;53.336;55.932;2023-02-18T02:39:24;99832.97;;;-12.77;48.91
70730;BME280;58315;53.336;55.932;2023-02-18T02:50:21;99829.75;;;-12.54;48.45
70730;BME280;58315;53.336;55.932;2023-02-18T02:52:59;99833.13;;;-12.57;48.34
70730;BME280;58315;53.336;55.932;2023-02-18T02:55:28;99833.09;;;-12.65;48.06
70730;BME280;58315;53.336;55.932;2023-02-18T02:57:55;99833.09;;;-12.58;48.19
70730;BME280;58315;53.336;55.932;2023-02-18T03:00:46;99824.56;;;-12.67;48.40
70730;BME280;58315;53.336;55.932;2023-02-18T03:03:33;99827.88;;;-12.78;48.89
70730;BME280;58315;53.336;55.932;2023-02-18T03:09:09;99833.06;;;-12.68;49.24
70730;BME280;58315;53.336;55.932;2023-02-18T03:11:53;99833.88;;;-12.70;48.39
70730;BME280;58315;53.336;55.932;2023-02-18T03:14:49;99837.28;;;-12.70;47.92
70730;BME280;58315;53.336;55.932;2023-02-18T03:17:29;99841.50;;;-12.72;48.49
70730;BME280;58315;53.336;55.932;2023-02-18T03:20:20;99835.56;;;-12.69;48.33
70730;BME280;58315;53.336;55.932;2023-02-18T03:22:50;99845.72;;;-12.75;48.43
70730;BME280;58315;53.336;55.932;2023-02-18T03:25:19;99838.09;;;-12.74;48.13
70730;BME280;58315;53.336;55.932;2023-02-18T03:27:57;99837.25;;;-12.74;47.94
70730;BME280;58315;53.336;55.932;2023-02-18T03:30:32;99835.41;;;-12.94;47.92
70730;BME280;58315;53.336;55.932;2023-02-18T03:33:03;99844.69;;;-12.94;48.17
70730;BME280;58315;53.336;55.932;2023-02-18T03:35:30;99846.56;;;-12.75;48.18
70730;BME280;58315;53.336;55.932;2023-02-18T03:38:03;99842.25;;;-12.83;48.25
70730;BME280;58315;53.336;55.932;2023-02-18T03:40:33;99844.75;;;-12.88;48.93
70730;BME280;58315;53.336;55.932;2023-02-18T03:43:00;99846.41;;;-12.95;49.22
70730;BME280;58315;53.336;55.932;2023-02-18T03:45:27;99841.25;;;-13.02;48.89
70730;BME280;58315;53.336;55.932;2023-02-18T03:47:53;99848.88;;;-13.04;47.87
70730;BME280;58315;53.336;55.932;2023-02-18T03:50:19;99848.03;;;-13.04;46.84
70730;BME280;58315;53.336;55.932;2023-02-18T03:52:45;99840.97;;;-13.38;47.02
70730;BME280;58315;53.336;55.932;2023-02-18T03:55:11;99851.78;;;-13.55;47.84
70730;BME280;58315;53.336;55.932;2023-02-18T03:57:38;99838.19;;;-13.59;47.69
70730;BME280;58315;53.336;55.932;2023-02-18T04:00:04;99848.28;;;-13.65;47.31
70730;BME280;58315;53.336;55.932;2023-02-18T04:02:39;99844.91;;;-13.66;47.06
70730;BME280;58315;53.336;55.932;2023-02-18T04:05:05;99836.47;;;-13.63;47.32
70730;BME280;58315;53.336;55.932;2023-02-18T04:07:32;99840.09;;;-13.41;47.40
70730;BME280;58315;53.336;55.932;2023-02-18T04:09:58;99834.84;;;-13.55;47.86
70730;BME280;58315;53.336;55.932;2023-02-18T04:12:25;99836.69;;;-13.42;48.11
70730;BME280;58315;53.336;55.932;2023-02-18T04:14:50;99839.38;;;-13.26;47.99
70730;BME280;58315;53.336;55.932;2023-02-18T04:17:18;99833.44;;;-13.25;48.25
70730;BME280;58315;53.336;55.932;2023-02-18T04:19:44;99838.59;;;-13.15;48.48
70730;BME280;58315;53.336;55.932;2023-02-18T04:22:10;99832.72;;;-13.06;49.24
70730;BME280;58315;53.336;55.932;2023-02-18T04:24:36;99834.66;;;-12.79;49.06
70730;BME280;58315;53.336;55.932;2023-02-18T04:27:02;99834.81;;;-12.60;48.54
70730;BME280;58315;53.336;55.932;2023-02-18T04:29:47;99836.59;;;-12.44;48.91
70730;BME280;58315;53.336;55.932;2023-02-18T04:32:13;99846.06;;;-12.26;48.45
70730;BME280;58315;53.336;55.932;2023-02-18T04:34:39;99845.31;;;-12.10;48.28
70730;BME280;58315;53.336;55.932;2023-02-18T04:37:05;99846.19;;;-12.02;47.39
70730;BME280;58315;53.336;55.932;2023-02-18T04:39:31;99839.34;;;-12.07;47.55
70730;BME280;58315;53.336;55.932;2023-02-18T04:41:57;99839.34;;;-12.07;47.57
70730;BME280;58315;53.336;55.932;2023-02-18T04:44:23;99842.00;;;-11.83;47.85
70730;BME280;58315;53.336;55.932;2023-02-18T04:46:48;99838.66;;;-11.70;46.88
70730;BME280;58315;53.336;55.932;2023-02-18T04:49:14;99842.06;;;-11.60;47.36
70730;BME280;58315;53.336;55.932;2023-02-18T04:51:40;99843.81;;;-11.51;47.11
70730;BME280;58315;53.336;55.932;2023-02-18T04:54:06;99836.16;;;-11.50;46.92
70730;BME280;58315;53.336;55.932;2023-02-18T04:56:32;99843.81;;;-11.48;45.39
70730;BME280;58315;53.336;55.932;2023-02-18T04:58:58;99847.16;;;-11.60;44.97
70730;BME280;58315;53.336;55.932;2023-02-18T05:01:24;99840.28;;;-11.90;44.78
70730;BME280;58315;53.336;55.932;2023-02-18T05:03:50;99843.63;;;-12.09;44.56
70730;BME280;58315;53.336;55.932;2023-02-18T05:06:16;99841.03;;;-12.11;44.36
70730;BME280;58315;53.336;55.932;2023-02-18T05:08:42;99851.31;;;-11.96;44.58
70730;BME280;58315;53.336;55.932;2023-02-18T05:11:08;99843.69;;;-11.89;44.44
70730;BME280;58315;53.336;55.932;2023-02-18T05:13:34;99843.72;;;-11.88;44.34
70730;BME280;58315;53.336;55.932;2023-02-18T05:16:01;99845.38;;;-11.93;44.25
70730;BME280;58315;53.336;55.932;2023-02-18T05:18:27;99849.66;;;-11.87;43.80
70730;BME280;58315;53.336;55.932;2023-02-18T05:20:53;99839.44;;;-11.89;43.47
70730;BME280;58315;53.336;55.932;2023-02-18T05:23:19;99847.91;;;-11.96;43.95
70730;BME280;58315;53.336;55.932;2023-02-18T05:25:46;99849.59;;;-12.00;43.78
70730;BME280;58315;53.336;55.932;2023-02-18T05:28:12;99848.72;;;-12.00;43.73
70730;BME280;58315;53.336;55.932;2023-02-18T05:30:38;99844.53;;;-11.95;43.61
70730;BME280;58315;53.336;55.932;2023-02-18T05:33:04;99844.50;;;-11.97;44.03
70730;BME280;58315;53.336;55.932;2023-02-18T05:35:30;99846.19;;;-11.96;44.16
70730;BME280;58315;53.336;55.932;2023-02-18T05:37:56;99847.97;;;-11.87;43.75
70730;BME280;58315;53.336;55.932;2023-02-18T05:40:22;99848.91;;;-11.54;44.36
70730;BME280;58315;53.336;55.932;2023-02-18T05:42:48;99848.06;;;-11.41;44.14
70730;BME280;58315;53.336;55.932;2023-02-18T05:45:13;99846.41;;;-11.27;44.80
70730;BME280;58315;53.336;55.932;2023-02-18T05:47:39;99847.28;;;-11.12;44.56
70730;BME280;58315;53.336;55.932;2023-02-18T05:50:06;99843.06;;;-11.07;44.63
70730;BME280;58315;53.336;55.932;2023-02-18T05:52:32;99849.88;;;-10.74;44.83
70730;BME280;58315;53.336;55.932;2023-02-18T05:54:58;99849.88;;;-10.53;44.47
70730;BME280;58315;53.336;55.932;2023-02-18T05:57:24;99843.03;;;-10.31;45.72
70730;BME280;58315;53.336;55.932;2023-02-18T05:59:50;99849.72;;;-9.99;44.70
70730;BME280;58315;53.336;55.932;2023-02-18T06:02:16;99844.59;;;-9.87;43.94
70730;BME280;58315;53.336;55.932;2023-02-18T06:04:42;99842.03;;;-9.87;44.11
70730;BME280;58315;53.336;55.932;2023-02-18T06:07:27;99845.34;;;-9.69;44.53
70730;BME280;58315;53.336;55.932;2023-02-18T06:09:53;99837.50;;;-9.31;44.01
70730;BME280;58315;53.336;55.932;2023-02-18T06:12:19;99828.78;;;-9.04;43.94
70730;BME280;58315;53.336;55.932;2023-02-18T06:14:45;99833.69;;;-8.73;43.50
70730;BME280;58315;53.336;55.932;2023-02-18T06:17:12;99832.66;;;-8.51;42.68
70730;BME280;58315;53.336;55.932;2023-02-18T06:19:38;99829.97;;;-8.39;42.56
70730;BME280;58315;53.336;55.932;2023-02-18T06:22:05;99834.00;;;-8.19;42.50
70730;BME280;58315;53.336;55.932;2023-02-18T06:24:31;99826.19;;;-8.06;41.99
70730;BME280;58315;53.336;55.932;2023-02-18T06:26:57;99830.38;;;-7.97;41.81
70730;BME280;58315;53.336;55.932;2023-02-18T06:29:23;99831.97;;;-7.88;41.45
70730;BME280;58315;53.336;55.932;2023-02-18T06:31:50;99830.47;;;-8.09;41.21
70730;BME280;58315;53.336;55.932;2023-02-18T06:34:16;99828.13;;;-8.26;42.14
70730;BME280;58315;53.336;55.932;2023-02-18T06:36:42;99822.25;;;-8.37;41.80
70730;BME280;58315;53.336;55.932;2023-02-18T06:39:08;99839.13;;;-8.18;42.65
70730;BME280;58315;53.336;55.932;2023-02-18T06:41:34;99826.06;;;-7.95;41.58
70730;BME280;58315;53.336;55.932;2023-02-18T06:44:00;99828.53;;;-7.86;41.74
70730;BME280;58315;53.336;55.932;2023-02-18T06:46:26;99833.53;;;-7.77;41.47
70730;BME280;58315;53.336;55.932;2023-02-18T06:48:52;99827.63;;;-7.82;41.25
70730;BME280;58315;53.336;55.932;2023-02-18T06:51:18;99827.50;;;-7.72;41.66
70730;BME280;58315;53.336;55.932;2023-02-18T06:53:44;99829.94;;;-7.62;41.62
70730;BME280;58315;53.336;55.932;2023-02-18T06:56:10;99825.13;;;-7.88;40.97
70730;BME280;58315;53.336;55.932;2023-02-18T06:58:37;99822.41;;;-7.76;42.02
70730;BME280;58315;53.336;55.932;2023-02-18T07:01:03;99831.31;;;-7.35;41.79
70730;BME280;58315;53.336;55.932;2023-02-18T07:03:29;99829.88;;;-6.95;41.48
70730;BME280;58315;53.336;55.932;2023-02-18T07:05:55;99828.00;;;-6.86;40.80
70730;BME280;58315;53.336;55.932;2023-02-18T07:08:21;99828.22;;;-6.99;40.70
70730;BME280;58315;53.336;55.932;2023-02-18T07:10:47;99828.81;;;-6.82;40.91
70730;BME280;58315;53.336;55.932;2023-02-18T07:13:14;99826.88;;;-6.68;40.70
70730;BME280;58315;53.336;55.932;2023-02-18T07:15:40;99826.88;;;-6.69;40.34
70730;BME280;58315;53.336;55.932;2023-02-18T07:18:06;99827.63;;;-6.61;40.58
70730;BME280;58315;53.336;55.932;2023-02-18T07:20:32;99822.13;;;-6.41;40.14
70730;BME280;58315;53.336;55.932;2023-02-18T07:22:58;99830.28;;;-6.67;39.94
70730;BME280;58315;53.336;55.932;2023-02-18T07:25:24;99818.06;;;-6.53;40.52
70730;BME280;58315;53.336;55.932;2023-02-18T07:27:51;99824.38;;;-6.21;39.61
70730;BME280;58315;53.336;55.932;2023-02-18T07:30:18;99819.94;;;-6.13;40.13
70730;BME280;58315;53.336;55.932;2023-02-18T07:32:44;99828.69;;;-5.82;40.01
70730;BME280;58315;53.336;55.932;2023-02-18T07:35:12;99828.00;;;-5.90;39.64
70730;BME280;58315;53.336;55.932;2023-02-18T07:37:42;99830.25;;;-6.16;39.66
70730;BME280;58315;53.336;55.932;2023-02-18T07:40:09;99821.19;;;-6.36;40.41
70730;BME280;58315;53.336;55.932;2023-02-18T07:42:38;99814.34;;;-6.37;40.44
70730;BME280;58315;53.336;55.932;2023-02-18T07:45:04;99818.72;;;-5.95;40.47
70730;BME280;58315;53.336;55.932;2023-02-18T07:47:30;99814.88;;;-5.76;40.36
70730;BME280;58315;53.336;55.932;2023-02-18T07:49:56;99808.00;;;-5.75;39.97
70730;BME280;58315;53.336;55.932;2023-02-18T07:52:22;99817.25;;;-5.67;39.54
70730;BME280;58315;53.336;55.932;2023-02-18T07:54:48;99802.69;;;-5.66;40.07
70730;BME280;58315;53.336;55.932;2023-02-18T07:57:14;99814.28;;;-5.47;40.30
70730;BME280;58315;53.336;55.932;2023-02-18T07:59:43;99810.63;;;-5.37;39.35
70730;BME280;58315;53.336;55.932;2023-02-18T08:02:20;99812.19;;;-5.29;39.86
70730;BME280;58315;53.336;55.932;2023-02-18T08:04:47;99811.00;;;-5.16;40.04
70730;BME280;58315;53.336;55.932;2023-02-18T08:07:14;99802.50;;;-5.18;39.61
70730;BME280;58315;53.336;55.932;2023-02-18T08:09:41;99809.56;;;-5.26;39.72
70730;BME280;58315;53.336;55.932;2023-02-18T08:12:08;99815.22;;;-5.12;39.64
70730;BME280;58315;53.336;55.932;2023-02-18T08:14:34;99810.06;;;-5.12;38.84
70730;BME280;58315;53.336;55.932;2023-02-18T08:17:00;99809.50;;;-5.25;38.88
70730;BME280;58315;53.336;55.932;2023-02-18T08:19:26;99811.41;;;-5.33;39.33
70730;BME280;58315;53.336;55.932;2023-02-18T08:21:52;99805.94;;;-5.19;39.46
70730;BME280;58315;53.336;55.932;2023-02-18T08:24:18;99808.25;;;-5.07;39.03
70730;BME280;58315;53.336;55.932;2023-02-18T08:26:44;99807.59;;;-5.17;38.84
70730;BME280;58315;53.336;55.932;2023-02-18T08:29:11;99801.72;;;-5.22;39.32
70730;BME280;58315;53.336;55.932;2023-02-18T08:31:36;99801.03;;;-5.30;39.10
70730;BME280;58315;53.336;55.932;2023-02-18T08:34:02;99807.81;;;-5.26;39.18
70730;BME280;58315;53.336;55.932;2023-02-18T08:36:29;99802.97;;;-5.01;39.39
70730;BME280;58315;53.336;55.932;2023-02-18T08:38:56;99801.28;;;-5.03;39.04
70730;BME280;58315;53.336;55.932;2023-02-18T08:41:22;99796.97;;;-5.03;38.98
70730;BME280;58315;53.336;55.932;2023-02-18T08:43:48;99799.56;;;-5.03;38.97
70730;BME280;58315;53.336;55.932;2023-02-18T08:46:15;99801.31;;;-5.05;39.02
70730;BME280;58315;53.336;55.932;2023-02-18T08:48:42;99799.88;;;-5.17;38.99
70730;BME280;58315;53.336;55.932;2023-02-18T08:51:12;99798.06;;;-5.12;39.38
70730;BME280;58315;53.336;55.932;2023-02-18T08:53:40;99789.88;;;-5.30;39.24
70730;BME280;58315;53.336;55.932;2023-02-18T08:56:07;99795.50;;;-5.13;39.97
70730;BME280;58315;53.336;55.932;2023-02-18T08:58:34;99793.28;;;-5.28;39.60
70730;BME280;58315;53.336;55.932;2023-02-18T09:01:20;99787.38;;;-5.34;39.83
70730;BME280;58315;53.336;55.932;2023-02-18T09:03:46;99797.97;;;-5.47;40.12
70730;BME280;58315;53.336;55.932;2023-02-18T09:06:13;99792.78;;;-5.44;39.92
70730;BME280;58315;53.336;55.932;2023-02-18T09:08:39;99788.19;;;-5.31;39.91
70730;BME280;58315;53.336;55.932;2023-02-18T09:11:05;99795.28;;;-5.43;40.40
70730;BME280;58315;53.336;55.932;2023-02-18T09:13:32;99795.41;;;-5.47;40.13
70730;BME280;58315;53.336;55.932;2023-02-18T09:16:07;99784.38;;;-5.54;40.77
70730;BME280;58315;53.336;55.932;2023-02-18T09:18:33;99782.47;;;-5.85;41.21
70730;BME280;58315;53.336;55.932;2023-02-18T09:21:04;99779.66;;;-6.16;41.35
70730;BME280;58315;53.336;55.932;2023-02-18T09:23:32;99780.16;;;-5.97;41.53
70730;BME280;58315;53.336;55.932;2023-02-18T09:25:59;99779.91;;;-5.86;41.40
70730;BME280;58315;53.336;55.932;2023-02-18T09:28:28;99783.97;;;-6.16;41.91
70730;BME280;58315;53.336;55.932;2023-02-18T09:30:54;99783.84;;;-6.10;41.69
70730;BME280;58315;53.336;55.932;2023-02-18T09:33:20;99787.81;;;-5.94;41.93
70730;BME280;58315;53.336;55.932;2023-02-18T09:35:46;99782.53;;;-5.88;41.73
70730;BME280;58315;53.336;55.932;2023-02-18T09:38:15;99777.84;;;-6.11;42.16
70730;BME280;58315;53.336;55.932;2023-02-18T09:40:48;99777.31;;;-5.85;42.45
70730;BME280;58315;53.336;55.932;2023-02-18T09:43:26;99774.41;;;-5.69;42.31
70730;BME280;58315;53.336;55.932;2023-02-18T09:45:54;99778.56;;;-5.62;42.19
70730;BME280;58315;53.336;55.932;2023-02-18T09:48:27;99784.16;;;-5.85;42.16
70730;BME280;58315;53.336;55.932;2023-02-18T09:50:54;99768.06;;;-5.93;42.47
70730;BME280;58315;53.336;55.932;2023-02-18T09:53:22;99777.00;;;-5.71;42.16
70730;BME280;58315;53.336;55.932;2023-02-18T09:55:50;99777.31;;;-5.85;41.95
70730;BME280;58315;53.336;55.932;2023-02-18T09:58:22;99770.56;;;-5.90;42.21
70730;BME280;58315;53.336;55.932;2023-02-18T10:00:53;99774.09;;;-5.94;42.50
70730;BME280;58315;53.336;55.932;2023-02-18T10:03:23;99787.81;;;-5.94;42.68
70730;BME280;58315;53.336;55.932;2023-02-18T10:05:57;99777.94;;;-5.75;42.74
70730;BME280;58315;53.336;55.932;2023-02-18T10:08:31;99776.22;;;-5.74;42.12
70730;BME280;58315;53.336;55.932;2023-02-18T10:10:59;99774.69;;;-5.83;42.14
70730;BME280;58315;53.336;55.932;2023-02-18T10:13:29;99777.78;;;-5.66;42.44
70730;BME280;58315;53.336;55.932;2023-02-18T10:15:56;99776.16;;;-5.70;42.20
70730;BME280;58315;53.336;55.932;2023-02-18T10:18:26;99774.25;;;-5.63;42.17
70730;BME280;58315;53.336;55.932;2023-02-18T10:20:58;99776.94;;;-5.68;42.13
70730;BME280;58315;53.336;55.932;2023-02-18T10:23:28;99772.75;;;-5.72;42.28
70730;BME280;58315;53.336;55.932;2023-02-18T10:25:56;99770.91;;;-5.67;42.08
70730;BME280;58315;53.336;55.932;2023-02-18T10:28:23;99777.88;;;-5.70;41.51
70730;BME280;58315;53.336;55.932;2023-02-18T10:30:58;99769.94;;;-5.61;42.21
70730;BME280;58315;53.336;55.932;2023-02-18T10:42:04;99761.50;;;-5.68;42.44
70730;BME280;58315;53.336;55.932;2023-02-18T10:52:42;99770.22;;;-5.73;42.44
70730;BME280;58315;53.336;55.932;2023-02-18T10:55:12;99768.50;;;-5.73;42.61
70730;BME280;58315;53.336;55.932;2023-02-18T10:57:49;99762.72;;;-5.84;42.48
70730;BME280;58315;53.336;55.932;2023-02-18T11:00:23;99771.63;;;-6.00;42.47
70730;BME280;58315;53.336;55.932;2023-02-18T11:03:19;99765.75;;;-6.05;42.61
70730;BME280;58315;53.336;55.932;2023-02-18T11:05:47;99771.00;;;-6.10;42.91
70730;BME280;58315;53.336;55.932;2023-02-18T11:08:37;99777.72;;;-6.04;42.83
70730;BME280;58315;53.336;55.932;2023-02-18T11:11:27;99786.13;;;-5.95;42.57
70730;BME280;58315;53.336;55.932;2023-02-18T11:13:56;99783.50;;;-5.93;43.00
70730;BME280;58315;53.336;55.932;2023-02-18T11:16:42;99769.84;;;-5.97;42.51
70730;BME280;58315;53.336;55.932;2023-02-18T11:19:34;99776.59;;;-5.91;42.34
70730;BME280;58315;53.336;55.932;2023-02-18T11:22:20;99775.00;;;-5.95;42.52
70730;BME280;58315;53.336;55.932;2023-02-18T11:24:47;99773.25;;;-5.95;42.80
70730;BME280;58315;53.336;55.932;2023-02-18T11:27:54;99777.31;;;-5.85;42.60
70730;BME280;58315;53.336;55.932;2023-02-18T11:30:18;99787.00;;;-5.96;42.33
70730;BME280;58315;53.336;55.932;2023-02-18T11:32:49;99779.28;;;-5.96;42.24
70730;BME280;58315;53.336;55.932;2023-02-18T11:35:26;99781.50;;;-5.80;42.75
70730;BME280;58315;53.336;55.932;2023-02-18T11:37:56;99779.00;;;-5.85;42.30
70730;BME280;58315;53.336;55.932;2023-02-18T11:40:34;99779.56;;;-5.69;42.16
70730;BME280;58315;53.336;55.932;2023-02-18T11:43:08;99776.22;;;-5.73;42.04
70730;BME280;58315;53.336;55.932;2023-02-18T11:45:36;99784.34;;;-5.93;42.43
70730;BME280;58315;53.336;55.932;2023-02-18T11:48:18;99770.50;;;-5.89;42.68
70730;BME280;58315;53.336;55.932;2023-02-18T11:50:52;99777.38;;;-5.88;42.27
70730;BME280;58315;53.336;55.932;2023-02-18T11:53:33;99779.16;;;-5.91;42.21
70730;BME280;58315;53.336;55.932;2023-02-18T11:56:04;99781.28;;;-6.10;42.08
70730;BME280;58315;53.336;55.932;2023-02-18T11:58:43;99776.78;;;-5.99;42.23
70730;BME280;58315;53.336;55.932;2023-02-18T12:01:23;99782.22;;;-6.16;42.20
70730;BME280;58315;53.336;55.932;2023-02-18T12:04:00;99773.41;;;-6.49;42.68
70730;BME280;58315;53.336;55.932;2023-02-18T12:06:42;99776.38;;;-6.70;43.01
70730;BME280;58315;53.336;55.932;2023-02-18T12:09:30;99772.81;;;-6.62;43.34
70730;BME280;58315;53.336;55.932;2023-02-18T12:12:03;99775.69;;;-6.82;43.28
70730;BME280;58315;53.336;55.932;2023-02-18T12:14:31;99778.44;;;-6.92;43.27
70730;BME280;58315;53.336;55.932;2023-02-18T12:17:06;99779.28;;;-6.92;43.23
70730;BME280;58315;53.336;55.932;2023-02-18T12:19:49;99782.66;;;-6.87;43.07
70730;BME280;58315;53.336;55.932;2023-02-18T12:22:33;99788.13;;;-7.08;43.35
70730;BME280;58315;53.336;55.932;2023-02-18T12:25:53;99790.00;;;-7.19;43.47
70730;BME280;58315;53.336;55.932;2023-02-18T12:34:27;99793.19;;;-7.64;44.47
70730;BME280;58315;53.336;55.932;2023-02-18T12:54:22;99779.88;;;-7.95;44.97
70730;BME280;58315;53.336;55.932;2023-02-18T13:00:14;99781.63;;;-7.98;44.87
70730;BME280;58315;53.336;55.932;2023-02-18T13:13:32;99779.38;;;-8.25;45.67
70730;BME280;58315;53.336;55.932;2023-02-18T13:16:07;99776.16;;;-8.40;45.95
70730;BME280;58315;53.336;55.932;2023-02-18T13:18:37;99779.69;;;-8.52;45.89
70730;BME280;58315;53.336;55.932;2023-02-18T13:21:08;99777.16;;;-8.57;45.88
70730;BME280;58315;53.336;55.932;2023-02-18T13:23:55;99780.56;;;-8.56;46.17
70730;BME280;58315;53.336;55.932;2023-02-18T13:26:23;99774.63;;;-8.58;46.33
70730;BME280;58315;53.336;55.932;2023-02-18T13:34:35;99782.56;;;-8.84;46.63
70730;BME280;58315;53.336;55.932;2023-02-18T13:39:54;99769.88;;;-8.98;46.88
70730;BME280;58315;53.336;55.932;2023-02-18T13:42:32;99769.09;;;-9.06;46.85
70730;BME280;58315;53.336;55.932;2023-02-18T13:47:35;99772.66;;;-9.33;48.04
70730;BME280;58315;53.336;55.932;2023-02-18T13:55:34;99770.06;;;-9.29;48.09
70730;BME280;58315;53.336;55.932;2023-02-18T13:58:04;99770.97;;;-9.31;47.84
70730;BME280;58315;53.336;55.932;2023-02-18T14:00:39;99763.34;;;-9.36;47.96
70730;BME280;58315;53.336;55.932;2023-02-18T14:06:16;99774.41;;;-9.35;47.89
70730;BME280;58315;53.336;55.932;2023-02-18T14:08:43;99778.69;;;-9.43;47.55
70730;BME280;58315;53.336;55.932;2023-02-18T14:13:39;99778.81;;;-9.57;47.57
70730;BME280;58315;53.336;55.932;2023-02-18T14:16:06;99774.59;;;-9.71;47.60
70730;BME280;58315;53.336;55.932;2023-02-18T14:21:18;99784.88;;;-9.78;47.74
70730;BME280;58315;53.336;55.932;2023-02-18T14:23:59;99782.34;;;-9.83;47.66
70730;BME280;58315;53.336;55.932;2023-02-18T14:26:38;99784.94;;;-9.95;47.90
70730;BME280;58315;53.336;55.932;2023-02-18T14:29:20;99779.03;;;-10.02;47.86
70730;BME280;58315;53.336;55.932;2023-02-18T14:43:10;99790.97;;;-10.08;48.42
70730;BME280;58315;53.336;55.932;2023-02-18T14:51:08;99792.72;;;-10.23;48.85
70730;BME280;58315;53.336;55.932;2023-02-18T14:53:41;99790.13;;;-10.16;48.44
70730;BME280;58315;53.336;55.932;2023-02-18T14:56:11;99785.97;;;-10.30;48.86
70730;BME280;58315;53.336;55.932;2023-02-18T14:58:45;99791.91;;;-10.29;49.12
70730;BME280;58315;53.336;55.932;2023-02-18T15:01:27;99785.94;;;-10.28;49.07
70730;BME280;58315;53.336;55.932;2023-02-18T15:03:54;99791.09;;;-10.34;49.10
70730;BME280;58315;53.336;55.932;2023-02-18T15:08:51;99789.38;;;-10.43;48.69
70730;BME280;58315;53.336;55.932;2023-02-18T15:11:18;99793.63;;;-10.42;48.42
70730;BME280;58315;53.336;55.932;2023-02-18T15:13:46;99791.13;;;-10.45;48.13
70730;BME280;58315;53.336;55.932;2023-02-18T15:16:22;99790.25;;;-10.44;48.43